sensor_id;sensor_type;location;lat;lon;timestamp;P1;durP1;ratioP1;P2;durP2;ratioP2
70667;SDS011;58242;51.250;-1.118;2024-01-15T00:00:13;2.40;;;2.30;;
70667;SDS011;58242;51.250;-1.118;2024-01-15T00:02:39;2.40;;;2.30;;
70667;SDS011;58242;51.250;-1.118;2024-01-15T00:05:04;2.00;;;2.00;;
70667;SDS011;58242;51.250;-1.118;2024-01-15T00:07:30;2.20;;;2.10;;
70667;SDS011;58242;51.250;-1.118;2024-01-15T00:09:55;2.10;;;2.10;;
70667;SDS011;58242;51.250;-1.118;2024-01-15T00:12:21;2.10;;;2.10;;
70667;SDS011;58242;51.250;-1.118;2024-01-15T00:14:46;1.80;;;1.80;;
70667;SDS011;58242;51.250;-1.118;2024-01-15T00:17:11;2.17;;;2.08;;
70667;SDS011;58242;51.250;-1.118;2024-01-15T00:19:37;1.90;;;1.90;;
70667;SDS011;58242;51.250;-1.118;2024-01-15T00:22:03;1.95;;;1.95;;
70667;SDS011;58242;51.250;-1.118;2024-01-15T00:24:29;1.95;;;1.95;;
70667;SDS011;58242;51.250;-1.118;2024-01-15T00:26:54;2.00;;;2.00;;
70667;SDS011;58242;51.250;-1.118;2024-01-15T00:29:20;2.05;;;2.05;;
70667;SDS011;58242;51.250;-1.118;2024-01-15T00:31:46;2.08;;;2.08;;
70667;SDS011;58242;51.250;-1.118;2024-01-15T00:34:11;1.90;;;1.80;;
70667;SDS011;58242;51.250;-1.118;2024-01-15T00:36:36;2.08;;;2.05;;
70667;SDS011;58242;51.250;-1.118;2024-01-15T00:39:02;1.90;;;1.90;;
70667;SDS011;58242;51.250;-1.118;2024-01-15T00:41:30;2.17;;;2.10;;
70667;SDS011;58242;51.250;-1.118;2024-01-15T00:43:55;2.20;;;2.10;;
70667;SDS011;58242;51.250;-1.118;2024-01-15T00:46:21;2.30;;;2.20;;
70667;SDS011;58242;51.250;-1.118;2024-01-15T00:48:46;2.13;;;2.13;;
70667;SDS011;58242;51.250;-1.118;2024-01-15T00:51:12;2.20;;;2.10;;
70667;SDS011;58242;51.250;-1.118;2024-01-15T00:53:38;2.10;;;2.10;;
70667;SDS011;58242;51.250;-1.118;2024-01-15T00:56:03;2.50;;;2.40;;
70667;SDS011;58242;51.250;-1.118;2024-01-15T00:58:28;2.45;;;2.35;;
70667;SDS011;58242;51.250;-1.118;2024-01-15T01:00:54;2.40;;;2.30;;
70667;SDS011;58242;51.250;-1.118;2024-01-15T01:03:20;2.40;;;2.30;;
70667;SDS011;58242;51.250;-1.118;2024-01-15T01:05:45;2.55;;;2.35;;
70667;SDS011;58242;51.250;-1.118;2024-01-15T01:08:11;2.58;;;2.47;;
70667;SDS011;58242;51.250;-1.118;2024-01-15T01:10:37;2.50;;;2.40;;
70667;SDS011;58242;51.250;-1.118;2024-01-15T01:13:02;2.47;;;2.38;;
70667;SDS011;58242;51.250;-1.118;2024-01-15T01:15:28;2.70;;;2.60;;
70667;SDS011;58242;51.250;-1.118;2024-01-15T01:17:53;2.47;;;2.38;;
70667;SDS011;58242;51.250;-1.118;2024-01-15T01:20:18;2.50;;;2.40;;
70667;SDS011;58242;51.250;-1.118;2024-01-15T01:22:44;2.50;;;2.40;;
70667;SDS011;58242;51.250;-1.118;2024-01-15T01:25:09;2.35;;;2.25;;
70667;SDS011;58242;51.250;-1.118;2024-01-15T01:27:35;2.53;;;2.42;;
70667;SDS011;58242;51.250;-1.118;2024-01-15T01:30:00;2.50;;;2.40;;
70667;SDS011;58242;51.250;-1.118;2024-01-15T01:32:26;2.15;;;2.10;;
70667;SDS011;58242;51.250;-1.118;2024-01-15T01:34:51;2.53;;;2.42;;
70667;SDS011;58242;51.250;-1.118;2024-01-15T01:37:18;2.25;;;2.15;;
70667;SDS011;58242;51.250;-1.118;2024-01-15T01:39:43;2.22;;;2.13;;
70667;SDS011;58242;51.250;-1.118;2024-01-15T01:42:08;2.45;;;2.35;;
70667;SDS011;58242;51.250;-1.118;2024-01-15T01:44:34;2.28;;;2.17;;
70667;SDS011;58242;51.250;-1.118;2024-01-15T01:47:00;2.53;;;2.42;;
70667;SDS011;58242;51.250;-1.118;2024-01-15T01:49:26;2.10;;;2.10;;
70667;SDS011;58242;51.250;-1.118;2024-01-15T01:51:52;2.30;;;2.20;;
70667;SDS011;58242;51.250;-1.118;2024-01-15T01:54:18;2.40;;;2.30;;
70667;SDS011;58242;51.250;-1.118;2024-01-15T01:56:45;2.00;;;2.00;;
70667;SDS011;58242;51.250;-1.118;2024-01-15T01:59:13;2.30;;;2.20;;
70667;SDS011;58242;51.250;-1.118;2024-01-15T02:01:39;2.13;;;2.13;;
70667;SDS011;58242;51.250;-1.118;2024-01-15T02:04:05;2.40;;;2.30;;
70667;SDS011;58242;51.250;-1.118;2024-01-15T02:06:31;2.00;;;2.00;;
70667;SDS011;58242;51.250;-1.118;2024-01-15T02:08:56;2.30;;;2.20;;
70667;SDS011;58242;51.250;-1.118;2024-01-15T02:11:22;2.38;;;2.28;;
70667;SDS011;58242;51.250;-1.118;2024-01-15T02:13:48;2.33;;;2.22;;
70667;SDS011;58242;51.250;-1.118;2024-01-15T02:16:13;2.40;;;2.20;;
70667;SDS011;58242;51.250;-1.118;2024-01-15T02:18:45;2.50;;;2.40;;
70667;SDS011;58242;51.250;-1.118;2024-01-15T02:21:11;2.33;;;2.22;;
70667;SDS011;58242;51.250;-1.118;2024-01-15T02:23:37;2.67;;;2.50;;
70667;SDS011;58242;51.250;-1.118;2024-01-15T02:26:02;2.30;;;2.20;;
70667;SDS011;58242;51.250;-1.118;2024-01-15T02:28:29;2.60;;;2.40;;
70667;SDS011;58242;51.250;-1.118;2024-01-15T02:30:54;2.10;;;2.00;;
70667;SDS011;58242;51.250;-1.118;2024-01-15T02:33:20;2.40;;;2.30;;
70667;SDS011;58242;51.250;-1.118;2024-01-15T02:35:45;2.25;;;2.15;;
70667;SDS011;58242;51.250;-1.118;2024-01-15T02:38:15;2.30;;;2.20;;
70667;SDS011;58242;51.250;-1.118;2024-01-15T02:40:41;2.15;;;2.15;;
70667;SDS011;58242;51.250;-1.118;2024-01-15T02:43:06;2.28;;;2.17;;
70667;SDS011;58242;51.250;-1.118;2024-01-15T02:45:31;2.47;;;2.38;;
70667;SDS011;58242;51.250;-1.118;2024-01-15T02:47:57;2.13;;;2.03;;
70667;SDS011;58242;51.250;-1.118;2024-01-15T02:50:22;2.13;;;2.03;;
70667;SDS011;58242;51.250;-1.118;2024-01-15T02:52:47;2.05;;;1.98;;
70667;SDS011;58242;51.250;-1.118;2024-01-15T02:55:13;2.30;;;2.20;;
70667;SDS011;58242;51.250;-1.118;2024-01-15T02:57:38;2.20;;;2.10;;
70667;SDS011;58242;51.250;-1.118;2024-01-15T03:00:04;2.40;;;2.30;;
70667;SDS011;58242;51.250;-1.118;2024-01-15T03:02:29;2.10;;;2.00;;
70667;SDS011;58242;51.250;-1.118;2024-01-15T03:04:57;1.90;;;1.90;;
70667;SDS011;58242;51.250;-1.118;2024-01-15T03:07:23;2.00;;;2.00;;
70667;SDS011;58242;51.250;-1.118;2024-01-15T03:09:48;2.13;;;2.03;;
70667;SDS011;58242;51.250;-1.118;2024-01-15T03:12:13;1.95;;;1.90;;
70667;SDS011;58242;51.250;-1.118;2024-01-15T03:14:39;2.30;;;2.20;;
70667;SDS011;58242;51.250;-1.118;2024-01-15T03:17:04;1.90;;;1.90;;
70667;SDS011;58242;51.250;-1.118;2024-01-15T03:19:29;2.03;;;1.90;;
70667;SDS011;58242;51.250;-1.118;2024-01-15T03:21:56;1.77;;;1.77;;
70667;SDS011;58242;51.250;-1.118;2024-01-15T03:24:21;1.90;;;1.90;;
70667;SDS011;58242;51.250;-1.118;2024-01-15T03:26:47;2.30;;;2.20;;
70667;SDS011;58242;51.250;-1.118;2024-01-15T03:29:12;2.00;;;1.90;;
70667;SDS011;58242;51.250;-1.118;2024-01-15T03:31:37;2.40;;;2.30;;
70667;SDS011;58242;51.250;-1.118;2024-01-15T03:34:03;1.95;;;1.95;;
70667;SDS011;58242;51.250;-1.118;2024-01-15T03:36:28;2.00;;;1.98;;
70667;SDS011;58242;51.250;-1.118;2024-01-15T03:38:54;2.10;;;2.10;;
70667;SDS011;58242;51.250;-1.118;2024-01-15T03:41:19;1.98;;;1.92;;
70667;SDS011;58242;51.250;-1.118;2024-01-15T03:43:44;2.45;;;2.35;;
70667;SDS011;58242;51.250;-1.118;2024-01-15T03:46:10;1.90;;;1.90;;
70667;SDS011;58242;51.250;-1.118;2024-01-15T03:48:35;2.50;;;2.15;;
70667;SDS011;58242;51.250;-1.118;2024-01-15T03:51:01;1.95;;;1.90;;
70667;SDS011;58242;51.250;-1.118;2024-01-15T03:53:26;2.10;;;2.10;;
70667;SDS011;58242;51.250;-1.118;2024-01-15T03:55:51;2.10;;;2.10;;
70667;SDS011;58242;51.250;-1.118;2024-01-15T03:58:17;2.00;;;2.00;;
70667;SDS011;58242;51.250;-1.118;2024-01-15T04:00:43;2.10;;;2.00;;
70667;SDS011;58242;51.250;-1.118;2024-01-15T04:03:08;2.33;;;2.30;;
70667;SDS011;58242;51.250;-1.118;2024-01-15T04:05:34;2.47;;;2.40;;
70667;SDS011;58242;51.250;-1.118;2024-01-15T04:07:59;2.30;;;2.20;;
70667;SDS011;58242;51.250;-1.118;2024-01-15T04:10:25;2.10;;;2.10;;
70667;SDS011;58242;51.250;-1.118;2024-01-15T04:12:50;2.45;;;2.22;;
70667;SDS011;58242;51.250;-1.118;2024-01-15T04:15:16;2.55;;;2.50;;
70667;SDS011;58242;51.250;-1.118;2024-01-15T04:17:41;2.20;;;2.20;;
70667;SDS011;58242;51.250;-1.118;2024-01-15T04:20:06;2.30;;;2.20;;
70667;SDS011;58242;51.250;-1.118;2024-01-15T04:22:33;2.30;;;2.30;;
70667;SDS011;58242;51.250;-1.118;2024-01-15T04:25:01;2.20;;;2.20;;
70667;SDS011;58242;51.250;-1.118;2024-01-15T04:27:26;2.10;;;2.10;;
70667;SDS011;58242;51.250;-1.118;2024-01-15T04:29:52;2.30;;;2.30;;
70667;SDS011;58242;51.250;-1.118;2024-01-15T04:32:17;2.22;;;2.15;;
70667;SDS011;58242;51.250;-1.118;2024-01-15T04:34:43;2.20;;;2.20;;
70667;SDS011;58242;51.250;-1.118;2024-01-15T04:37:09;2.40;;;2.30;;
70667;SDS011;58242;51.250;-1.118;2024-01-15T04:39:34;2.30;;;2.20;;
70667;SDS011;58242;51.250;-1.118;2024-01-15T04:41:59;2.03;;;2.03;;
70667;SDS011;58242;51.250;-1.118;2024-01-15T04:44:24;2.22;;;2.13;;
70667;SDS011;58242;51.250;-1.118;2024-01-15T04:46:50;2.03;;;2.03;;
70667;SDS011;58242;51.250;-1.118;2024-01-15T04:49:15;2.17;;;2.10;;
70667;SDS011;58242;51.250;-1.118;2024-01-15T04:51:41;2.33;;;2.22;;
70667;SDS011;58242;51.250;-1.118;2024-01-15T04:54:06;2.00;;;2.00;;
70667;SDS011;58242;51.250;-1.118;2024-01-15T04:56:31;1.85;;;1.85;;
70667;SDS011;58242;51.250;-1.118;2024-01-15T04:58:57;2.38;;;2.28;;
70667;SDS011;58242;51.250;-1.118;2024-01-15T05:01:22;2.30;;;2.20;;
70667;SDS011;58242;51.250;-1.118;2024-01-15T05:03:47;2.55;;;2.45;;
70667;SDS011;58242;51.250;-1.118;2024-01-15T05:06:14;2.70;;;2.50;;
70667;SDS011;58242;51.250;-1.118;2024-01-15T05:08:39;2.70;;;2.60;;
70667;SDS011;58242;51.250;-1.118;2024-01-15T05:11:05;2.50;;;2.40;;
70667;SDS011;58242;51.250;-1.118;2024-01-15T05:13:30;2.40;;;2.30;;
70667;SDS011;58242;51.250;-1.118;2024-01-15T05:15:56;2.50;;;2.40;;
70667;SDS011;58242;51.250;-1.118;2024-01-15T05:18:21;2.50;;;2.40;;
70667;SDS011;58242;51.250;-1.118;2024-01-15T05:20:47;2.33;;;2.22;;
70667;SDS011;58242;51.250;-1.118;2024-01-15T05:23:12;2.60;;;2.50;;
70667;SDS011;58242;51.250;-1.118;2024-01-15T05:25:37;3.25;;;2.92;;
70667;SDS011;58242;51.250;-1.118;2024-01-15T05:28:03;2.50;;;2.40;;
70667;SDS011;58242;51.250;-1.118;2024-01-15T05:30:28;2.40;;;2.35;;
70667;SDS011;58242;51.250;-1.118;2024-01-15T05:32:53;2.67;;;2.58;;
70667;SDS011;58242;51.250;-1.118;2024-01-15T05:35:19;2.63;;;2.55;;
70667;SDS011;58242;51.250;-1.118;2024-01-15T05:37:44;2.65;;;2.55;;
70667;SDS011;58242;51.250;-1.118;2024-01-15T05:40:11;2.90;;;2.80;;
70667;SDS011;58242;51.250;-1.118;2024-01-15T05:42:37;2.58;;;2.47;;
70667;SDS011;58242;51.250;-1.118;2024-01-15T05:45:03;2.97;;;2.88;;
70667;SDS011;58242;51.250;-1.118;2024-01-15T05:47:30;2.60;;;2.50;;
70667;SDS011;58242;51.250;-1.118;2024-01-15T05:49:55;2.38;;;2.28;;
70667;SDS011;58242;51.250;-1.118;2024-01-15T05:52:21;2.63;;;2.42;;
70667;SDS011;58242;51.250;-1.118;2024-01-15T05:54:47;3.00;;;2.90;;
70667;SDS011;58242;51.250;-1.118;2024-01-15T05:57:12;2.80;;;2.70;;
70667;SDS011;58242;51.250;-1.118;2024-01-15T05:59:38;2.90;;;2.80;;
70667;SDS011;58242;51.250;-1.118;2024-01-15T06:02:03;3.00;;;2.90;;
70667;SDS011;58242;51.250;-1.118;2024-01-15T06:04:29;2.72;;;2.63;;
70667;SDS011;58242;51.250;-1.118;2024-01-15T06:06:54;3.33;;;3.13;;
70667;SDS011;58242;51.250;-1.118;2024-01-15T06:09:19;3.00;;;2.90;;
70667;SDS011;58242;51.250;-1.118;2024-01-15T06:11:45;2.95;;;2.85;;
70667;SDS011;58242;51.250;-1.118;2024-01-15T06:14:10;3.33;;;3.13;;
70667;SDS011;58242;51.250;-1.118;2024-01-15T06:16:35;3.47;;;3.28;;
70667;SDS011;58242;51.250;-1.118;2024-01-15T06:19:01;3.65;;;3.55;;
70667;SDS011;58242;51.250;-1.118;2024-01-15T06:21:26;3.35;;;3.25;;
70667;SDS011;58242;51.250;-1.118;2024-01-15T06:23:51;3.50;;;3.30;;
70667;SDS011;58242;51.250;-1.118;2024-01-15T06:26:17;3.65;;;3.40;;
70667;SDS011;58242;51.250;-1.118;2024-01-15T06:28:42;3.55;;;3.28;;
70667;SDS011;58242;51.250;-1.118;2024-01-15T06:31:08;3.20;;;3.10;;
70667;SDS011;58242;51.250;-1.118;2024-01-15T06:33:33;4.20;;;4.00;;
70667;SDS011;58242;51.250;-1.118;2024-01-15T06:35:59;3.50;;;3.25;;
70667;SDS011;58242;51.250;-1.118;2024-01-15T06:38:24;3.30;;;3.20;;
70667;SDS011;58242;51.250;-1.118;2024-01-15T06:40:50;3.30;;;3.20;;
70667;SDS011;58242;51.250;-1.118;2024-01-15T06:43:16;3.60;;;3.50;;
70667;SDS011;58242;51.250;-1.118;2024-01-15T06:45:42;3.38;;;3.17;;
70667;SDS011;58242;51.250;-1.118;2024-01-15T06:48:08;3.25;;;3.05;;
70667;SDS011;58242;51.250;-1.118;2024-01-15T06:50:34;3.63;;;3.42;;
70667;SDS011;58242;51.250;-1.118;2024-01-15T06:52:59;3.80;;;3.70;;
70667;SDS011;58242;51.250;-1.118;2024-01-15T06:55:26;4.03;;;3.78;;
70667;SDS011;58242;51.250;-1.118;2024-01-15T06:57:52;3.47;;;3.28;;
70667;SDS011;58242;51.250;-1.118;2024-01-15T07:00:18;4.18;;;3.88;;
70667;SDS011;58242;51.250;-1.118;2024-01-15T07:02:44;3.53;;;3.42;;
70667;SDS011;58242;51.250;-1.118;2024-01-15T07:05:10;3.55;;;3.40;;
70667;SDS011;58242;51.250;-1.118;2024-01-15T07:07:36;3.20;;;3.10;;
70667;SDS011;58242;51.250;-1.118;2024-01-15T07:10:01;3.50;;;3.40;;
70667;SDS011;58242;51.250;-1.118;2024-01-15T07:12:28;3.38;;;3.28;;
70667;SDS011;58242;51.250;-1.118;2024-01-15T07:14:54;3.50;;;3.40;;
70667;SDS011;58242;51.250;-1.118;2024-01-15T07:17:20;3.67;;;3.58;;
70667;SDS011;58242;51.250;-1.118;2024-01-15T07:19:45;3.45;;;3.35;;
70667;SDS011;58242;51.250;-1.118;2024-01-15T07:22:11;3.35;;;3.25;;
70667;SDS011;58242;51.250;-1.118;2024-01-15T07:24:37;3.30;;;3.20;;
70667;SDS011;58242;51.250;-1.118;2024-01-15T07:27:02;3.30;;;3.20;;
70667;SDS011;58242;51.250;-1.118;2024-01-15T07:29:29;3.10;;;3.00;;
70667;SDS011;58242;51.250;-1.118;2024-01-15T07:31:55;3.10;;;3.00;;
70667;SDS011;58242;51.250;-1.118;2024-01-15T07:34:20;3.35;;;3.25;;
70667;SDS011;58242;51.250;-1.118;2024-01-15T07:36:47;3.40;;;3.30;;
70667;SDS011;58242;51.250;-1.118;2024-01-15T07:39:12;3.80;;;3.50;;
70667;SDS011;58242;51.250;-1.118;2024-01-15T07:41:38;3.42;;;3.33;;
70667;SDS011;58242;51.250;-1.118;2024-01-15T07:44:04;3.58;;;3.47;;
70667;SDS011;58242;51.250;-1.118;2024-01-15T07:46:30;3.55;;;3.45;;
70667;SDS011;58242;51.250;-1.118;2024-01-15T07:48:56;3.83;;;3.72;;
70667;SDS011;58242;51.250;-1.118;2024-01-15T07:51:23;3.67;;;3.58;;
70667;SDS011;58242;51.250;-1.118;2024-01-15T07:53:49;3.90;;;3.80;;
70667;SDS011;58242;51.250;-1.118;2024-01-15T07:56:14;3.55;;;3.35;;
70667;SDS011;58242;51.250;-1.118;2024-01-15T07:58:40;3.28;;;3.13;;
70667;SDS011;58242;51.250;-1.118;2024-01-15T08:01:05;3.83;;;3.63;;
70667;SDS011;58242;51.250;-1.118;2024-01-15T08:03:31;3.85;;;3.65;;
70667;SDS011;58242;51.250;-1.118;2024-01-15T08:05:56;3.35;;;3.25;;
70667;SDS011;58242;51.250;-1.118;2024-01-15T08:08:24;3.22;;;3.13;;
70667;SDS011;58242;51.250;-1.118;2024-01-15T08:10:50;3.40;;;3.30;;
70667;SDS011;58242;51.250;-1.118;2024-01-15T08:13:15;3.75;;;3.65;;
70667;SDS011;58242;51.250;-1.118;2024-01-15T08:15:41;3.90;;;3.70;;
70667;SDS011;58242;51.250;-1.118;2024-01-15T08:18:06;3.58;;;3.47;;
70667;SDS011;58242;51.250;-1.118;2024-01-15T08:20:32;3.40;;;3.30;;
70667;SDS011;58242;51.250;-1.118;2024-01-15T08:22:57;3.58;;;3.42;;
70667;SDS011;58242;51.250;-1.118;2024-01-15T08:25:23;3.72;;;3.63;;
70667;SDS011;58242;51.250;-1.118;2024-01-15T08:27:48;2.97;;;2.88;;
70667;SDS011;58242;51.250;-1.118;2024-01-15T08:30:14;3.50;;;3.30;;
70667;SDS011;58242;51.250;-1.118;2024-01-15T08:32:39;3.20;;;3.10;;
70667;SDS011;58242;51.250;-1.118;2024-01-15T08:35:08;3.08;;;2.90;;
70667;SDS011;58242;51.250;-1.118;2024-01-15T08:37:34;3.15;;;2.95;;
70667;SDS011;58242;51.250;-1.118;2024-01-15T08:39:59;2.95;;;2.85;;
70667;SDS011;58242;51.250;-1.118;2024-01-15T08:42:25;3.08;;;2.97;;
70667;SDS011;58242;51.250;-1.118;2024-01-15T08:44:50;2.97;;;2.80;;
70667;SDS011;58242;51.250;-1.118;2024-01-15T08:47:16;2.88;;;2.67;;
70667;SDS011;58242;51.250;-1.118;2024-01-15T08:49:41;3.78;;;3.22;;
70667;SDS011;58242;51.250;-1.118;2024-01-15T08:52:09;2.97;;;2.78;;
70667;SDS011;58242;51.250;-1.118;2024-01-15T08:54:34;3.08;;;2.97;;
70667;SDS011;58242;51.250;-1.118;2024-01-15T08:57:00;3.53;;;3.22;;
70667;SDS011;58242;51.250;-1.118;2024-01-15T08:59:25;3.30;;;3.13;;
70667;SDS011;58242;51.250;-1.118;2024-01-15T09:01:51;3.15;;;2.90;;
70667;SDS011;58242;51.250;-1.118;2024-01-15T09:04:17;2.50;;;2.40;;
70667;SDS011;58242;51.250;-1.118;2024-01-15T09:06:45;3.10;;;3.00;;
70667;SDS011;58242;51.250;-1.118;2024-01-15T09:09:14;2.47;;;2.38;;
70667;SDS011;58242;51.250;-1.118;2024-01-15T09:11:40;2.90;;;2.80;;
70667;SDS011;58242;51.250;-1.118;2024-01-15T09:14:06;2.58;;;2.47;;
70667;SDS011;58242;51.250;-1.118;2024-01-15T09:16:31;2.75;;;2.30;;
70667;SDS011;58242;51.250;-1.118;2024-01-15T09:18:57;2.47;;;2.38;;
70667;SDS011;58242;51.250;-1.118;2024-01-15T09:21:22;2.33;;;2.22;;
70667;SDS011;58242;51.250;-1.118;2024-01-15T09:23:49;2.50;;;2.40;;
70667;SDS011;58242;51.250;-1.118;2024-01-15T09:26:15;2.20;;;2.10;;
70667;SDS011;58242;51.250;-1.118;2024-01-15T09:28:40;2.10;;;2.10;;
70667;SDS011;58242;51.250;-1.118;2024-01-15T09:31:06;2.60;;;2.20;;
70667;SDS011;58242;51.250;-1.118;2024-01-15T09:33:31;2.92;;;2.60;;
70667;SDS011;58242;51.250;-1.118;2024-01-15T09:35:56;2.47;;;2.25;;
70667;SDS011;58242;51.250;-1.118;2024-01-15T09:38:22;2.35;;;2.25;;
70667;SDS011;58242;51.250;-1.118;2024-01-15T09:40:49;2.45;;;2.35;;
70667;SDS011;58242;51.250;-1.118;2024-01-15T09:43:15;2.00;;;1.95;;
70667;SDS011;58242;51.250;-1.118;2024-01-15T09:45:42;2.03;;;1.92;;
70667;SDS011;58242;51.250;-1.118;2024-01-15T09:48:08;2.45;;;2.30;;
70667;SDS011;58242;51.250;-1.118;2024-01-15T09:50:34;2.40;;;2.20;;
70667;SDS011;58242;51.250;-1.118;2024-01-15T09:52:59;2.75;;;2.63;;
70667;SDS011;58242;51.250;-1.118;2024-01-15T09:55:25;2.10;;;2.00;;
70667;SDS011;58242;51.250;-1.118;2024-01-15T09:57:53;3.38;;;2.40;;
70667;SDS011;58242;51.250;-1.118;2024-01-15T10:00:20;2.63;;;2.53;;
70667;SDS011;58242;51.250;-1.118;2024-01-15T10:02:47;2.30;;;2.20;;
70667;SDS011;58242;51.250;-1.118;2024-01-15T10:05:12;2.45;;;2.35;;
70667;SDS011;58242;51.250;-1.118;2024-01-15T10:07:38;2.63;;;2.42;;
70667;SDS011;58242;51.250;-1.118;2024-01-15T10:10:04;2.97;;;2.78;;
70667;SDS011;58242;51.250;-1.118;2024-01-15T10:12:30;2.90;;;2.53;;
70667;SDS011;58242;51.250;-1.118;2024-01-15T10:14:56;3.47;;;2.90;;
70667;SDS011;58242;51.250;-1.118;2024-01-15T10:17:21;3.20;;;2.95;;
70667;SDS011;58242;51.250;-1.118;2024-01-15T10:19:47;5.03;;;3.42;;
70667;SDS011;58242;51.250;-1.118;2024-01-15T10:22:13;3.50;;;3.20;;
70667;SDS011;58242;51.250;-1.118;2024-01-15T10:24:40;4.05;;;3.67;;
70667;SDS011;58242;51.250;-1.118;2024-01-15T10:27:06;4.30;;;3.90;;
70667;SDS011;58242;51.250;-1.118;2024-01-15T10:32:00;3.78;;;3.47;;
70667;SDS011;58242;51.250;-1.118;2024-01-15T10:34:26;3.60;;;3.30;;
70667;SDS011;58242;51.250;-1.118;2024-01-15T10:36:51;3.55;;;3.30;;
70667;SDS011;58242;51.250;-1.118;2024-01-15T10:39:23;3.58;;;3.38;;
70667;SDS011;58242;51.250;-1.118;2024-01-15T10:41:51;3.15;;;2.83;;
70667;SDS011;58242;51.250;-1.118;2024-01-15T10:44:17;4.15;;;3.90;;
70667;SDS011;58242;51.250;-1.118;2024-01-15T10:46:43;3.13;;;3.03;;
70667;SDS011;58242;51.250;-1.118;2024-01-15T10:49:10;4.10;;;3.53;;
70667;SDS011;58242;51.250;-1.118;2024-01-15T10:51:36;3.65;;;3.45;;
70667;SDS011;58242;51.250;-1.118;2024-01-15T10:54:02;3.17;;;3.08;;
70667;SDS011;58242;51.250;-1.118;2024-01-15T10:56:28;3.53;;;3.13;;
70667;SDS011;58242;51.250;-1.118;2024-01-15T10:58:56;3.50;;;3.30;;
70667;SDS011;58242;51.250;-1.118;2024-01-15T11:01:22;3.08;;;2.88;;
70667;SDS011;58242;51.250;-1.118;2024-01-15T11:03:48;3.70;;;3.45;;
70667;SDS011;58242;51.250;-1.118;2024-01-15T11:06:18;3.45;;;3.22;;
70667;SDS011;58242;51.250;-1.118;2024-01-15T11:08:50;3.08;;;2.78;;
70667;SDS011;58242;51.250;-1.118;2024-01-15T11:11:17;3.67;;;3.47;;
70667;SDS011;58242;51.250;-1.118;2024-01-15T11:13:43;3.10;;;2.90;;
70667;SDS011;58242;51.250;-1.118;2024-01-15T11:16:12;2.88;;;2.78;;
70667;SDS011;58242;51.250;-1.118;2024-01-15T11:18:43;3.00;;;2.90;;
70667;SDS011;58242;51.250;-1.118;2024-01-15T11:21:26;2.70;;;2.60;;
70667;SDS011;58242;51.250;-1.118;2024-01-15T11:23:56;3.15;;;2.88;;
70667;SDS011;58242;51.250;-1.118;2024-01-15T11:29:31;2.00;;;2.00;;
70667;SDS011;58242;51.250;-1.118;2024-01-15T11:37:15;2.72;;;2.10;;
70667;SDS011;58242;51.250;-1.118;2024-01-15T11:39:43;2.10;;;2.00;;
70667;SDS011;58242;51.250;-1.118;2024-01-15T11:42:09;4.65;;;2.30;;
70667;SDS011;58242;51.250;-1.118;2024-01-15T11:44:36;2.13;;;2.03;;
70667;SDS011;58242;51.250;-1.118;2024-01-15T11:47:03;2.42;;;2.25;;
70667;SDS011;58242;51.250;-1.118;2024-01-15T11:52:31;2.58;;;2.47;;
70667;SDS011;58242;51.250;-1.118;2024-01-15T11:57:49;2.40;;;2.30;;
70667;SDS011;58242;51.250;-1.118;2024-01-15T12:00:15;2.47;;;2.13;;
70667;SDS011;58242;51.250;-1.118;2024-01-15T12:02:45;2.25;;;2.15;;
70667;SDS011;58242;51.250;-1.118;2024-01-15T12:05:12;2.58;;;2.38;;
70667;SDS011;58242;51.250;-1.118;2024-01-15T12:07:42;2.15;;;2.05;;
70667;SDS011;58242;51.250;-1.118;2024-01-15T12:10:14;2.60;;;2.40;;
70667;SDS011;58242;51.250;-1.118;2024-01-15T12:15:13;2.22;;;2.13;;
70667;SDS011;58242;51.250;-1.118;2024-01-15T12:17:39;2.40;;;2.20;;
70667;SDS011;58242;51.250;-1.118;2024-01-15T12:20:05;2.55;;;2.35;;
70667;SDS011;58242;51.250;-1.118;2024-01-15T12:22:31;2.53;;;2.42;;
70667;SDS011;58242;51.250;-1.118;2024-01-15T12:24:56;2.33;;;2.22;;
70667;SDS011;58242;51.250;-1.118;2024-01-15T12:27:22;2.47;;;2.38;;
70667;SDS011;58242;51.250;-1.118;2024-01-15T12:29:48;2.28;;;2.17;;
70667;SDS011;58242;51.250;-1.118;2024-01-15T12:32:14;2.30;;;2.17;;
70667;SDS011;58242;51.250;-1.118;2024-01-15T12:34:39;2.70;;;2.50;;
70667;SDS011;58242;51.250;-1.118;2024-01-15T12:37:06;2.42;;;2.33;;
70667;SDS011;58242;51.250;-1.118;2024-01-15T12:39:33;4.05;;;2.63;;
70667;SDS011;58242;51.250;-1.118;2024-01-15T12:41:59;2.70;;;2.60;;
70667;SDS011;58242;51.250;-1.118;2024-01-15T12:44:24;2.28;;;2.17;;
70667;SDS011;58242;51.250;-1.118;2024-01-15T12:46:51;4.45;;;2.90;;
70667;SDS011;58242;51.250;-1.118;2024-01-15T12:49:16;2.50;;;2.40;;
70667;SDS011;58242;51.250;-1.118;2024-01-15T12:51:42;2.60;;;2.40;;
70667;SDS011;58242;51.250;-1.118;2024-01-15T12:54:07;3.08;;;2.70;;
70667;SDS011;58242;51.250;-1.118;2024-01-15T12:56:33;2.50;;;2.40;;
70667;SDS011;58242;51.250;-1.118;2024-01-15T12:58:58;2.60;;;2.40;;
70667;SDS011;58242;51.250;-1.118;2024-01-15T13:01:24;2.63;;;2.53;;
70667;SDS011;58242;51.250;-1.118;2024-01-15T13:03:49;2.95;;;2.40;;
70667;SDS011;58242;51.250;-1.118;2024-01-15T13:06:15;3.38;;;3.08;;
70667;SDS011;58242;51.250;-1.118;2024-01-15T13:08:40;3.08;;;2.83;;
70667;SDS011;58242;51.250;-1.118;2024-01-15T13:11:05;3.78;;;3.47;;
70667;SDS011;58242;51.250;-1.118;2024-01-15T13:13:31;4.35;;;3.88;;
70667;SDS011;58242;51.250;-1.118;2024-01-15T13:15:59;3.88;;;3.58;;
70667;SDS011;58242;51.250;-1.118;2024-01-15T13:18:25;3.28;;;3.05;;
70667;SDS011;58242;51.250;-1.118;2024-01-15T13:20:50;3.38;;;3.17;;
70667;SDS011;58242;51.250;-1.118;2024-01-15T13:23:15;3.22;;;2.95;;
70667;SDS011;58242;51.250;-1.118;2024-01-15T13:25:41;2.67;;;2.55;;
70667;SDS011;58242;51.250;-1.118;2024-01-15T13:28:07;2.88;;;2.55;;
70667;SDS011;58242;51.250;-1.118;2024-01-15T13:30:33;2.70;;;2.50;;
70667;SDS011;58242;51.250;-1.118;2024-01-15T13:32:58;2.53;;;2.42;;
70667;SDS011;58242;51.250;-1.118;2024-01-15T13:35:28;3.08;;;2.80;;
70667;SDS011;58242;51.250;-1.118;2024-01-15T13:37:54;2.55;;;2.45;;
70667;SDS011;58242;51.250;-1.118;2024-01-15T13:40:19;2.50;;;2.38;;
70667;SDS011;58242;51.250;-1.118;2024-01-15T13:42:45;2.85;;;2.75;;
70667;SDS011;58242;51.250;-1.118;2024-01-15T13:45:11;2.42;;;2.33;;
70667;SDS011;58242;51.250;-1.118;2024-01-15T13:47:39;2.47;;;2.37;;
70667;SDS011;58242;51.250;-1.118;2024-01-15T13:50:05;2.63;;;2.50;;
70667;SDS011;58242;51.250;-1.118;2024-01-15T13:52:31;2.60;;;2.50;;
70667;SDS011;58242;51.250;-1.118;2024-01-15T13:54:57;2.58;;;2.47;;
70667;SDS011;58242;51.250;-1.118;2024-01-15T13:57:22;2.70;;;2.50;;
70667;SDS011;58242;51.250;-1.118;2024-01-15T13:59:47;3.70;;;2.90;;
70667;SDS011;58242;51.250;-1.118;2024-01-15T14:02:14;2.88;;;2.67;;
70667;SDS011;58242;51.250;-1.118;2024-01-15T14:04:39;2.50;;;2.40;;
70667;SDS011;58242;51.250;-1.118;2024-01-15T14:07:06;2.72;;;2.53;;
70667;SDS011;58242;51.250;-1.118;2024-01-15T14:09:31;2.40;;;2.30;;
70667;SDS011;58242;51.250;-1.118;2024-01-15T14:11:57;2.92;;;2.72;;
70667;SDS011;58242;51.250;-1.118;2024-01-15T14:14:22;2.90;;;2.70;;
70667;SDS011;58242;51.250;-1.118;2024-01-15T14:16:48;3.20;;;2.97;;
70667;SDS011;58242;51.250;-1.118;2024-01-15T14:19:13;2.50;;;2.40;;
70667;SDS011;58242;51.250;-1.118;2024-01-15T14:21:40;2.50;;;2.40;;
70667;SDS011;58242;51.250;-1.118;2024-01-15T14:24:05;2.50;;;2.40;;
70667;SDS011;58242;51.250;-1.118;2024-01-15T14:26:31;2.55;;;2.45;;
70667;SDS011;58242;51.250;-1.118;2024-01-15T14:28:56;2.58;;;2.47;;
70667;SDS011;58242;51.250;-1.118;2024-01-15T14:31:23;3.25;;;2.85;;
70667;SDS011;58242;51.250;-1.118;2024-01-15T14:33:51;2.80;;;2.60;;
70667;SDS011;58242;51.250;-1.118;2024-01-15T14:36:16;2.90;;;2.70;;
70667;SDS011;58242;51.250;-1.118;2024-01-15T14:38:42;2.95;;;2.75;;
70667;SDS011;58242;51.250;-1.118;2024-01-15T14:41:07;3.13;;;2.83;;
70667;SDS011;58242;51.250;-1.118;2024-01-15T14:43:32;3.28;;;3.08;;